Time;durP1;ratioP1;P1;durP2;ratioP2;P2;SDS_P1;SDS_P2;PMS_P1;PMS_P2;Temp;Humidity;BMP_temperature;BMP_pressure;BME280_temperature;BME280_humidity;BME280_pressure;Samples;Min_cycle;Max_cycle;Signal;HPM_P1;HPM_P2
2023/05/18 00:01:32;;;;;;;3.97;2.03;;;12.50;65.40;;;;;;5134198;27;20027;-85
2023/05/18 00:03:58;;;;;;;7.57;2.20;;;12.50;65.20;;;;;;5100114;27;20027;-84
2023/05/18 00:06:26;;;;;;;6.55;2.13;;;12.50;65.20;;;;;;5099956;27;20510;-84
2023/05/18 00:08:52;;;;;;;5.40;1.95;;;12.50;65.50;;;;;;5100428;27;20080;-84
2023/05/18 00:11:18;;;;;;;3.80;1.75;;;12.40;65.60;;;;;;5116800;27;20023;-84
2023/05/18 00:13:43;;;;;;;4.88;1.77;;;12.40;65.90;;;;;;5116965;27;20019;-84
2023/05/18 00:16:11;;;;;;;6.93;2.65;;;12.40;66.10;;;;;;5135477;27;20079;-84
2023/05/18 00:18:36;;;;;;;4.80;2.10;;;12.30;66.10;;;;;;5135161;27;20023;-84
2023/05/18 00:21:03;;;;;;;3.95;1.80;;;12.40;66.40;;;;;;5116755;27;20073;-85
2023/05/18 00:23:30;;;;;;;5.32;2.30;;;12.40;66.50;;;;;;5116488;27;20023;-84
2023/05/18 00:25:57;;;;;;;4.70;1.88;;;12.30;66.80;;;;;;5117168;27;20023;-84
2023/05/18 00:28:23;;;;;;;6.25;2.22;;;12.20;66.90;;;;;;5133564;27;20019;-84
2023/05/18 00:30:49;;;;;;;4.10;1.83;;;12.20;67.70;;;;;;5116622;27;20046;-84
2023/05/18 00:33:15;;;;;;;5.78;2.05;;;12.10;67.00;;;;;;5099695;27;20392;-84
2023/05/18 00:35:40;;;;;;;3.20;2.03;;;12.10;67.30;;;;;;5116252;27;20111;-84
2023/05/18 00:38:07;;;;;;;4.65;2.10;;;12.10;67.50;;;;;;5116351;27;20773;-84
2023/05/18 00:40:32;;;;;;;7.07;2.80;;;12.00;67.60;;;;;;5099554;27;20031;-84
2023/05/18 00:42:59;;;;;;;9.15;2.28;;;12.00;67.70;;;;;;5116257;27;20050;-84
2023/05/18 00:45:25;;;;;;;4.55;2.20;;;12.00;67.90;;;;;;5099383;27;20046;-84
2023/05/18 00:47:51;;;;;;;5.72;1.90;;;11.90;68.00;;;;;;5116164;27;20023;-84
2023/05/18 00:50:17;;;;;;;4.95;2.10;;;11.90;68.10;;;;;;5116111;27;20384;-85
2023/05/18 00:52:44;;;;;;;4.72;1.88;;;12.00;67.90;;;;;;5133276;27;20498;-84
2023/05/18 00:55:11;;;;;;;3.33;1.88;;;11.90;68.00;;;;;;5133327;27;20472;-84
2023/05/18 00:57:37;;;;;;;8.18;2.50;;;11.90;68.10;;;;;;5133116;27;20439;-84
2023/05/18 01:00:06;;;;;;;6.38;2.00;;;11.80;68.30;;;;;;5116038;27;20027;-84
2023/05/18 01:02:35;;;;;;;6.65;2.50;;;11.80;68.40;;;;;;5116474;27;20088;-84
2023/05/18 01:05:02;;;;;;;5.22;2.22;;;11.80;68.70;;;;;;5116172;27;20076;-84
2023/05/18 01:07:32;;;;;;;4.30;2.25;;;11.80;68.70;;;;;;5115917;27;20019;-84
2023/05/18 01:09:58;;;;;;;4.18;2.13;;;11.80;68.60;;;;;;5132737;27;20047;-84
2023/05/18 01:12:28;;;;;;;5.57;2.35;;;11.80;68.50;;;;;;5134434;27;20360;-85
2023/05/18 01:15:18;;;;;;;4.15;2.30;;;11.80;68.60;;;;;;5132939;27;20491;-84
2023/05/18 01:18:09;;;;;;;5.85;2.80;;;11.70;68.80;;;;;;5134014;27;20032;-84
2023/05/18 01:20:44;;;;;;;8.45;2.50;;;11.60;69.20;;;;;;5132668;27;20531;-84
2023/05/18 01:23:47;;;;;;;7.88;2.50;;;11.60;69.40;;;;;;5132689;27;20019;-84
2023/05/18 01:26:15;;;;;;;5.15;2.35;;;11.60;69.60;;;;;;5132633;27;20091;-84
2023/05/18 01:28:45;;;;;;;10.95;2.63;;;11.50;69.60;;;;;;5132552;27;20030;-84
2023/05/18 01:31:12;;;;;;;5.10;2.55;;;11.50;69.80;;;;;;5132453;27;20391;-84
2023/05/18 01:33:37;;;;;;;5.43;2.45;;;11.50;70.10;;;;;;5132706;27;20027;-84
2023/05/18 01:36:03;;;;;;;6.90;3.08;;;11.50;70.10;;;;;;5133831;27;20023;-84
2023/05/18 01:38:29;;;;;;;5.53;2.50;;;11.40;70.00;;;;;;5132502;27;20518;-84
2023/05/18 01:41:12;;;;;;;7.15;2.83;;;11.40;70.00;;;;;;5115570;27;20064;-84
2023/05/18 01:43:54;;;;;;;6.07;2.45;;;11.40;70.10;;;;;;5132525;27;20042;-84
2023/05/18 01:46:47;;;;;;;3.93;2.30;;;11.40;69.90;;;;;;5132475;27;20043;-84
2023/05/18 01:49:20;;;;;;;5.97;2.72;;;11.40;69.80;;;;;;5132401;27;20062;-84
2023/05/18 01:51:47;;;;;;;8.27;2.53;;;11.30;69.80;;;;;;5132416;27;20027;-84
2023/05/18 01:54:16;;;;;;;5.43;2.90;;;11.30;69.90;;;;;;5115191;28;20434;-84
2023/05/18 01:56:43;;;;;;;5.70;2.58;;;11.30;70.10;;;;;;5115489;28;20041;-84
2023/05/18 01:59:09;;;;;;;7.93;2.50;;;11.20;70.40;;;;;;5098243;28;20484;-84
2023/05/18 02:01:35;;;;;;;4.30;2.40;;;11.20;70.60;;;;;;5115274;28;20357;-85
2023/05/18 02:04:01;;;;;;;6.00;2.60;;;11.20;70.80;;;;;;5115077;28;20083;-84
2023/05/18 02:06:26;;;;;;;4.50;2.65;;;11.20;70.90;;;;;;5115271;28;20061;-84
2023/05/18 02:08:52;;;;;;;5.10;2.33;;;11.20;70.90;;;;;;5097922;28;20071;-84
2023/05/18 02:11:18;;;;;;;5.40;2.30;;;11.20;71.00;;;;;;5098150;28;20023;-84
2023/05/18 02:13:44;;;;;;;4.57;2.13;;;11.10;71.10;;;;;;5114990;28;20665;-84
2023/05/18 02:16:10;;;;;;;6.43;2.13;;;11.10;71.10;;;;;;5132165;27;20034;-84
2023/05/18 02:18:37;;;;;;;4.95;2.40;;;11.10;71.30;;;;;;5101355;27;20499;-84
2023/05/18 02:21:03;;;;;;;4.82;2.40;;;11.10;71.30;;;;;;5102460;27;20034;-84
2023/05/18 02:23:28;;;;;;;9.05;2.83;;;11.10;71.50;;;;;;5136357;27;20023;-84
2023/05/18 02:25:54;;;;;;;4.10;2.65;;;11.10;71.70;;;;;;5119010;27;20092;-84
2023/05/18 02:28:21;;;;;;;8.30;2.60;;;11.10;71.70;;;;;;5101898;27;20502;-84
2023/05/18 02:30:46;;;;;;;6.53;3.10;;;11.00;71.70;;;;;;5135857;27;20023;-84
2023/05/18 02:33:12;;;;;;;6.85;2.55;;;11.00;71.70;;;;;;5118684;27;20528;-84
2023/05/18 02:35:39;;;;;;;8.25;2.97;;;11.00;71.80;;;;;;5118827;27;20031;-84
2023/05/18 02:38:05;;;;;;;10.30;2.70;;;10.90;71.90;;;;;;5135894;27;20067;-84
2023/05/18 02:40:31;;;;;;;8.60;2.47;;;10.90;72.10;;;;;;5135784;27;20026;-84
2023/05/18 02:42:57;;;;;;;6.15;2.60;;;10.90;72.10;;;;;;5135745;27;20031;-84
2023/05/18 02:45:23;;;;;;;4.68;2.47;;;10.80;72.40;;;;;;5101530;27;20051;-84
2023/05/18 02:47:49;;;;;;;4.43;2.15;;;10.80;72.50;;;;;;5101635;27;20031;-84
2023/05/18 02:50:14;;;;;;;6.60;2.25;;;10.70;72.60;;;;;;5136863;27;20027;-84
2023/05/18 02:52:40;;;;;;;6.75;2.60;;;10.70;72.70;;;;;;5118495;27;20531;-84
2023/05/18 02:55:07;;;;;;;5.38;2.33;;;10.70;72.60;;;;;;5135556;27;20015;-84
2023/05/18 02:57:32;;;;;;;7.93;2.58;;;10.70;72.70;;;;;;5118342;27;20163;-84
2023/05/18 02:59:58;;;;;;;6.05;2.40;;;10.70;72.60;;;;;;5118351;27;20081;-84
2023/05/18 03:02:24;;;;;;;6.97;2.25;;;10.70;72.80;;;;;;5135411;27;20396;-84
2023/05/18 03:04:52;;;;;;;4.78;2.25;;;10.70;72.80;;;;;;5101219;27;20027;-84
2023/05/18 03:07:20;;;;;;;4.72;2.25;;;10.80;72.90;;;;;;5101908;27;20111;-84
2023/05/18 03:09:45;;;;;;;5.07;2.38;;;10.70;72.90;;;;;;5118014;27;20047;-84
2023/05/18 03:12:11;;;;;;;7.18;2.38;;;10.70;72.90;;;;;;5117993;27;20038;-84
2023/05/18 03:14:37;;;;;;;9.05;2.30;;;10.60;72.90;;;;;;5117976;27;20472;-84
2023/05/18 03:17:04;;;;;;;5.90;2.67;;;10.60;73.00;;;;;;5118079;27;20054;-84
2023/05/18 03:19:31;;;;;;;5.90;2.78;;;10.50;73.30;;;;;;5101254;27;20031;-84
2023/05/18 03:21:57;;;;;;;8.68;2.75;;;10.50;73.60;;;;;;5101110;27;20031;-84
2023/05/18 03:24:25;;;;;;;6.30;2.90;;;10.50;73.70;;;;;;5135084;27;20076;-84
2023/05/18 03:26:54;;;;;;;11.23;2.88;;;10.50;73.50;;;;;;5117903;27;20114;-84
2023/05/18 03:29:20;;;;;;;5.55;2.00;;;10.50;73.60;;;;;;5133337;27;20050;-84
2023/05/18 03:31:45;;;;;;;5.57;2.63;;;10.40;73.80;;;;;;5101045;27;20357;-84
2023/05/18 03:34:11;;;;;;;9.18;2.47;;;10.40;74.10;;;;;;5100575;27;20030;-84
2023/05/18 03:36:37;;;;;;;9.80;2.95;;;10.40;74.30;;;;;;5117754;27;20057;-84
2023/05/18 03:39:05;;;;;;;6.25;2.45;;;10.40;74.80;;;;;;5117565;27;20039;-84
2023/05/18 03:41:31;;;;;;;5.88;2.55;;;10.40;74.30;;;;;;5134655;27;20102;-84
2023/05/18 03:43:57;;;;;;;5.03;2.65;;;10.40;74.10;;;;;;5135844;27;20027;-84
2023/05/18 03:46:23;;;;;;;6.13;2.20;;;10.40;74.20;;;;;;5117606;27;20031;-84
2023/05/18 03:48:49;;;;;;;5.60;2.80;;;10.40;74.30;;;;;;5134428;27;20110;-84
2023/05/18 03:51:15;;;;;;;7.38;2.83;;;10.30;74.30;;;;;;5100445;27;20556;-84
2023/05/18 03:53:41;;;;;;;5.65;2.97;;;10.40;74.30;;;;;;5134465;27;20106;-84
2023/05/18 03:56:07;;;;;;;5.82;2.30;;;10.40;74.30;;;;;;5117401;27;20030;-84
2023/05/18 03:58:32;;;;;;;5.35;2.63;;;10.40;74.30;;;;;;5100300;27;20017;-84
2023/05/18 04:00:59;;;;;;;9.77;2.70;;;10.40;74.20;;;;;;5100484;27;20114;-84
2023/05/18 04:03:25;;;;;;;6.97;2.58;;;10.40;74.30;;;;;;5100013;27;20054;-84
2023/05/18 04:05:52;;;;;;;5.30;2.63;;;10.40;74.40;;;;;;5117194;27;20407;-84
2023/05/18 04:08:18;;;;;;;4.32;2.30;;;10.30;74.40;;;;;;5134121;27;20102;-84
2023/05/18 04:10:44;;;;;;;6.95;2.50;;;10.30;74.50;;;;;;5116955;27;20115;-84
2023/05/18 04:13:10;;;;;;;4.55;2.33;;;10.30;74.50;;;;;;5134012;27;20039;-84
2023/05/18 04:15:37;;;;;;;7.15;2.83;;;10.30;74.50;;;;;;5133877;27;20483;-84
2023/05/18 04:18:03;;;;;;;7.00;2.47;;;10.40;74.60;;;;;;5133882;27;20019;-84
2023/05/18 04:20:29;;;;;;;5.55;2.42;;;10.40;74.60;;;;;;5133780;27;20023;-84
2023/05/18 04:22:58;;;;;;;5.78;2.80;;;10.30;74.30;;;;;;5116909;27;20515;-84
2023/05/18 04:25:26;;;;;;;6.35;2.30;;;10.30;74.40;;;;;;5135520;27;20476;-84
2023/05/18 04:27:53;;;;;;;6.28;2.55;;;10.30;74.70;;;;;;5133697;27;20015;-84
2023/05/18 04:30:22;;;;;;;4.90;1.95;;;10.40;74.60;;;;;;5133711;27;20080;-84
2023/05/18 04:32:48;;;;;;;5.22;2.78;;;10.40;74.70;;;;;;5134882;27;20011;-84
2023/05/18 04:35:15;;;;;;;5.38;2.55;;;10.40;74.80;;;;;;5133594;27;20052;-84
2023/05/18 04:37:41;;;;;;;8.32;2.88;;;10.40;74.70;;;;;;5133523;27;20015;-84
2023/05/18 04:40:15;;;;;;;7.85;2.67;;;10.40;74.80;;;;;;5133113;27;20030;-84
2023/05/18 04:42:46;;;;;;;6.35;2.53;;;10.40;74.70;;;;;;5133499;27;20532;-84
2023/05/18 04:45:18;;;;;;;7.03;2.90;;;10.40;74.80;;;;;;5100500;27;20099;-84
2023/05/18 04:47:45;;;;;;;5.90;2.80;;;10.40;74.90;;;;;;5133332;27;20037;-84
2023/05/18 04:50:13;;;;;;;7.45;2.63;;;10.50;75.00;;;;;;5116252;27;20114;-84
2023/05/18 04:52:40;;;;;;;6.07;2.50;;;10.50;75.30;;;;;;5133208;27;20023;-84
2023/05/18 04:55:09;;;;;;;6.95;2.83;;;10.50;75.10;;;;;;5099479;27;20508;-84
2023/05/18 04:57:35;;;;;;;6.65;2.75;;;10.50;75.00;;;;;;5133106;27;20068;-84
2023/05/18 05:00:03;;;;;;;8.52;2.75;;;10.50;75.10;;;;;;5116009;27;20023;-84
2023/05/18 05:02:28;;;;;;;8.45;2.78;;;10.50;75.10;;;;;;5099517;27;20376;-84
2023/05/18 05:04:54;;;;;;;9.18;2.95;;;10.60;75.10;;;;;;5098872;27;20037;-84
2023/05/18 05:07:20;;;;;;;8.38;2.80;;;10.50;74.70;;;;;;5116250;27;20092;-84
2023/05/18 05:09:45;;;;;;;7.28;2.88;;;10.50;74.90;;;;;;5115733;27;20488;-84
2023/05/18 05:12:11;;;;;;;5.07;2.80;;;10.50;75.20;;;;;;5115736;27;20023;-84
2023/05/18 05:14:36;;;;;;;7.00;3.00;;;10.50;75.10;;;;;;5098757;27;20019;-84
2023/05/18 05:17:02;;;;;;;7.07;3.25;;;10.50;75.30;;;;;;5115813;27;20392;-84
2023/05/18 05:19:28;;;;;;;9.52;2.83;;;10.60;75.30;;;;;;5132598;27;20019;-84
2023/05/18 05:21:53;;;;;;;7.32;2.88;;;10.60;75.30;;;;;;5098636;27;20452;-84
2023/05/18 05:24:19;;;;;;;5.95;2.65;;;10.60;75.20;;;;;;5097691;27;20482;-84
2023/05/18 05:26:44;;;;;;;8.88;2.88;;;10.70;75.10;;;;;;5098595;27;20391;-84
2023/05/18 05:29:10;;;;;;;7.18;3.13;;;10.70;74.90;;;;;;5114857;27;20019;-84
2023/05/18 05:31:36;;;;;;;8.98;3.08;;;10.80;74.80;;;;;;5114589;27;20096;-84
2023/05/18 05:34:01;;;;;;;9.82;2.85;;;10.80;74.80;;;;;;5132442;27;20026;-84
2023/05/18 05:36:27;;;;;;;6.38;2.35;;;10.80;75.80;;;;;;5115652;27;20057;-84
2023/05/18 05:38:53;;;;;;;7.07;2.97;;;10.80;74.70;;;;;;5115399;27;20023;-84
2023/05/18 05:41:19;;;;;;;6.10;2.85;;;10.80;74.80;;;;;;5132505;27;20418;-84
2023/05/18 05:43:44;;;;;;;6.82;2.85;;;10.80;74.70;;;;;;5115181;27;20449;-84
2023/05/18 05:46:10;;;;;;;10.93;2.88;;;10.80;74.80;;;;;;5115219;28;20054;-84
2023/05/18 05:48:36;;;;;;;7.50;3.90;;;10.90;74.70;;;;;;5115299;28;20041;-84
2023/05/18 05:51:01;;;;;;;8.85;3.33;;;10.90;74.80;;;;;;5115280;28;20118;-84
2023/05/18 05:53:28;;;;;;;5.40;2.83;;;10.90;74.70;;;;;;5100981;27;20084;-84
2023/05/18 05:55:54;;;;;;;5.35;2.40;;;10.90;75.50;;;;;;5102965;27;20015;-84
2023/05/18 05:58:19;;;;;;;7.97;3.17;;;10.90;74.80;;;;;;5119768;27;20487;-84
2023/05/18 06:00:45;;;;;;;6.63;2.92;;;11.00;74.80;;;;;;5119318;27;20027;-84
2023/05/18 06:03:11;;;;;;;6.82;3.08;;;11.00;74.80;;;;;;5119441;27;20022;-84
2023/05/18 06:05:36;;;;;;;9.20;2.83;;;11.00;74.70;;;;;;5136458;27;20031;-84
2023/05/18 06:08:03;;;;;;;7.22;3.08;;;11.00;74.70;;;;;;5113500;27;20038;-84
2023/05/18 06:10:29;;;;;;;8.20;2.90;;;11.00;74.80;;;;;;5118896;27;20030;-84
2023/05/18 06:12:55;;;;;;;6.32;2.85;;;10.90;74.80;;;;;;5136270;27;20110;-84
2023/05/18 06:15:21;;;;;;;4.07;2.85;;;10.90;74.90;;;;;;5117887;27;20161;-84
2023/05/18 06:17:47;;;;;;;8.73;3.10;;;10.90;75.00;;;;;;5117126;27;20027;-84
2023/05/18 06:20:12;;;;;;;7.65;3.30;;;10.90;75.10;;;;;;5100297;27;20030;-83
2023/05/18 06:22:38;;;;;;;9.80;3.67;;;10.90;74.90;;;;;;5118069;27;20030;-84
2023/05/18 06:25:04;;;;;;;7.20;3.05;;;10.90;75.00;;;;;;5134933;27;20034;-84
2023/05/18 06:27:31;;;;;;;6.25;2.90;;;11.00;75.30;;;;;;5135064;27;20073;-84
2023/05/18 06:29:56;;;;;;;8.52;3.00;;;11.00;75.60;;;;;;5117955;27;20047;-84
2023/05/18 06:32:22;;;;;;;8.93;3.20;;;11.10;75.10;;;;;;5135960;27;20072;-84
2023/05/18 06:34:49;;;;;;;7.22;3.00;;;11.10;75.30;;;;;;5101698;27;20058;-84
2023/05/18 06:37:16;;;;;;;9.40;3.28;;;11.10;74.50;;;;;;5119004;27;20020;-84
2023/05/18 06:39:41;;;;;;;6.22;3.13;;;11.20;74.70;;;;;;5135659;27;20015;-84
2023/05/18 06:42:07;;;;;;;5.30;2.70;;;11.10;74.60;;;;;;5101676;27;20080;-84
2023/05/18 06:44:34;;;;;;;7.22;2.60;;;11.20;74.60;;;;;;5118472;27;20037;-84
2023/05/18 06:47:00;;;;;;;7.90;2.72;;;11.20;74.30;;;;;;5118618;27;20062;-84
2023/05/18 06:49:26;;;;;;;9.70;3.15;;;11.30;73.70;;;;;;5118392;27;20508;-84
2023/05/18 06:51:51;;;;;;;8.73;3.42;;;11.30;73.40;;;;;;5118504;27;20023;-84
2023/05/18 06:54:17;;;;;;;8.05;2.83;;;11.30;73.90;;;;;;5101322;27;20019;-84
2023/05/18 06:56:43;;;;;;;7.60;2.92;;;11.30;74.50;;;;;;5118223;27;20015;-84
2023/05/18 06:59:08;;;;;;;6.18;2.92;;;11.30;73.90;;;;;;5115624;27;20076;-84
2023/05/18 07:01:34;;;;;;;10.13;2.67;;;11.40;74.00;;;;;;5115009;27;20019;-84
2023/05/18 07:03:59;;;;;;;7.03;3.13;;;11.40;73.70;;;;;;5132607;27;20361;-84
2023/05/18 07:06:25;;;;;;;6.18;2.78;;;11.50;73.60;;;;;;5099001;27;20012;-84
2023/05/18 07:08:51;;;;;;;8.02;3.00;;;11.50;73.30;;;;;;5114979;27;20042;-84
2023/05/18 07:11:16;;;;;;;6.38;3.33;;;11.60;73.10;;;;;;5116036;27;20027;-84
2023/05/18 07:13:42;;;;;;;5.65;3.05;;;11.60;72.00;;;;;;5116156;27;20035;-84
2023/05/18 07:16:08;;;;;;;5.50;2.47;;;11.70;72.40;;;;;;5117914;27;20483;-84
2023/05/18 07:18:33;;;;;;;7.10;2.80;;;11.70;72.90;;;;;;5136225;27;20023;-84
2023/05/18 07:20:59;;;;;;;5.22;2.50;;;11.70;72.40;;;;;;5117970;27;20384;-84
2023/05/18 07:23:24;;;;;;;5.68;3.00;;;11.80;72.60;;;;;;5117770;27;20437;-84
2023/05/18 07:25:50;;;;;;;7.43;2.83;;;11.90;73.10;;;;;;5117679;27;20027;-84
2023/05/18 07:28:16;;;;;;;5.20;2.35;;;12.00;72.70;;;;;;5100739;27;20028;-84
2023/05/18 07:30:41;;;;;;;6.72;2.60;;;12.10;72.70;;;;;;5134930;27;20031;-84
2023/05/18 07:33:07;;;;;;;7.97;2.85;;;12.30;72.40;;;;;;5100595;27;20366;-84
2023/05/18 07:35:33;;;;;;;8.88;3.40;;;12.30;71.60;;;;;;5100665;27;20106;-84
2023/05/18 07:37:58;;;;;;;6.05;2.60;;;12.40;71.20;;;;;;5100468;27;20441;-84
2023/05/18 07:40:24;;;;;;;5.20;2.67;;;12.40;70.80;;;;;;5134597;27;20023;-84
2023/05/18 07:42:49;;;;;;;9.38;2.80;;;12.50;71.10;;;;;;5100380;27;20031;-84
2023/05/18 07:45:15;;;;;;;7.45;3.55;;;12.50;70.80;;;;;;5117336;27;20042;-84
2023/05/18 07:47:41;;;;;;;6.03;2.92;;;12.60;70.60;;;;;;5134492;27;20471;-84
2023/05/18 07:50:07;;;;;;;7.47;2.75;;;12.60;70.20;;;;;;5134256;27;20030;-84
2023/05/18 07:52:33;;;;;;;6.53;3.08;;;12.60;70.50;;;;;;5134259;27;20118;-84
2023/05/18 07:54:59;;;;;;;5.97;2.88;;;12.70;70.30;;;;;;5100220;27;20103;-84
2023/05/18 07:57:25;;;;;;;7.55;2.75;;;12.70;69.90;;;;;;5117447;27;20025;-80
2023/05/18 07:59:51;;;;;;;6.47;2.92;;;12.80;69.60;;;;;;5135514;27;20019;-84
2023/05/18 08:02:18;;;;;;;11.52;3.17;;;12.80;69.60;;;;;;5100011;27;20048;-84
2023/05/18 08:04:44;;;;;;;6.53;3.03;;;12.80;68.70;;;;;;5117117;27;20115;-85
2023/05/18 08:07:11;;;;;;;10.15;3.20;;;12.90;69.50;;;;;;5134159;27;20042;-85
2023/05/18 08:09:37;;;;;;;9.02;3.00;;;12.90;69.60;;;;;;5133748;27;20051;-85
2023/05/18 08:12:04;;;;;;;5.78;2.63;;;13.00;69.50;;;;;;5100070;27;20381;-84
2023/05/18 08:14:30;;;;;;;5.40;2.83;;;13.00;69.60;;;;;;5099577;27;20023;-84
2023/05/18 08:16:55;;;;;;;8.23;2.90;;;13.10;69.20;;;;;;5116434;27;20028;-84
2023/05/18 08:19:21;;;;;;;6.30;2.80;;;13.20;69.20;;;;;;5099692;27;20015;-85
2023/05/18 08:21:47;;;;;;;5.20;2.50;;;13.30;69.40;;;;;;5116801;27;20098;-85
2023/05/18 08:24:12;;;;;;;8.98;2.80;;;13.40;68.90;;;;;;5116746;27;20028;-84
2023/05/18 08:26:38;;;;;;;7.65;2.50;;;13.40;68.40;;;;;;5116483;27;20493;-84
2023/05/18 08:29:08;;;;;;;8.43;2.97;;;13.40;67.70;;;;;;5116583;27;20388;-85
2023/05/18 08:31:38;;;;;;;11.45;2.90;;;13.50;68.00;;;;;;5133855;27;20496;-85
2023/05/18 08:34:04;;;;;;;9.93;3.35;;;13.60;67.90;;;;;;5116795;27;20460;-84
2023/05/18 08:36:32;;;;;;;5.53;2.70;;;13.60;67.90;;;;;;5134876;27;20023;-84
2023/05/18 08:38:58;;;;;;;6.63;3.05;;;13.70;67.10;;;;;;5099630;27;20110;-85
2023/05/18 08:42:00;;;;;;;10.90;3.13;;;13.80;66.90;;;;;;5116570;27;20027;-85
2023/05/18 08:44:31;;;;;;;12.02;3.40;;;13.90;67.30;;;;;;5101130;27;20529;-84
2023/05/18 08:46:57;;;;;;;7.63;3.00;;;13.90;67.30;;;;;;5133282;27;20114;-84
2023/05/18 08:49:25;;;;;;;7.55;3.03;;;14.00;66.90;;;;;;5116037;27;20031;-85
2023/05/18 08:51:56;;;;;;;10.93;3.20;;;13.90;66.50;;;;;;5116342;27;20027;-84
2023/05/18 08:54:22;;;;;;;8.75;2.83;;;14.00;66.70;;;;;;5133325;27;20064;-85
2023/05/18 08:56:49;;;;;;;7.60;2.63;;;14.00;66.40;;;;;;5099187;27;20557;-85
2023/05/18 08:59:20;;;;;;;7.63;2.88;;;14.10;66.80;;;;;;5133219;27;20029;-85
2023/05/18 09:01:46;;;;;;;5.25;2.88;;;14.20;66.60;;;;;;5133108;27;20016;-85
2023/05/18 09:04:12;;;;;;;9.10;3.53;;;14.20;65.90;;;;;;5133007;27;20031;-85
2023/05/18 09:06:38;;;;;;;5.65;2.72;;;14.10;65.20;;;;;;5116123;27;20020;-84
2023/05/18 09:09:05;;;;;;;5.00;2.55;;;14.10;64.50;;;;;;5115673;27;20054;-84
2023/05/18 09:11:32;;;;;;;6.03;2.70;;;14.10;64.70;;;;;;5132780;27;20082;-85
2023/05/18 09:13:59;;;;;;;7.90;2.80;;;14.20;64.90;;;;;;5115667;27;20076;-84
2023/05/18 09:16:25;;;;;;;7.60;2.85;;;14.20;65.80;;;;;;5132838;27;20044;-85
2023/05/18 09:18:52;;;;;;;9.57;3.10;;;14.20;65.20;;;;;;5132745;27;20051;-85
2023/05/18 09:21:17;;;;;;;4.28;2.50;;;14.30;64.60;;;;;;5132759;27;20029;-85
2023/05/18 09:23:43;;;;;;;9.23;2.95;;;14.30;64.50;;;;;;5115532;27;20023;-85
2023/05/18 09:26:10;;;;;;;7.45;3.45;;;14.40;64.30;;;;;;5132700;27;20031;-85
2023/05/18 09:28:40;;;;;;;9.13;3.20;;;14.40;64.00;;;;;;5115686;27;20023;-85
2023/05/18 09:31:07;;;;;;;8.90;3.50;;;14.40;64.60;;;;;;5133791;27;20023;-84
2023/05/18 09:33:38;;;;;;;10.77;3.30;;;14.40;64.00;;;;;;5132540;27;20474;-85
2023/05/18 09:36:08;;;;;;;7.75;3.55;;;14.50;64.20;;;;;;5132497;27;20104;-85
2023/05/18 09:38:52;;;;;;;6.40;3.00;;;14.40;63.80;;;;;;5132718;27;20027;-85
2023/05/18 09:41:18;;;;;;;10.52;3.50;;;14.40;63.30;;;;;;5132401;27;20083;-85
2023/05/18 09:43:46;;;;;;;6.10;2.85;;;14.40;63.20;;;;;;5115441;28;20034;-85
2023/05/18 09:46:12;;;;;;;6.78;3.10;;;14.40;63.50;;;;;;5115550;28;20091;-84
2023/05/18 09:48:44;;;;;;;8.02;3.47;;;14.40;63.40;;;;;;5115360;28;20092;-85
2023/05/18 09:51:16;;;;;;;6.68;3.60;;;14.40;63.20;;;;;;5132492;27;20433;-85
2023/05/18 09:54:05;;;;;;;9.83;3.03;;;14.40;62.80;;;;;;5116044;28;20419;-84
2023/05/18 09:56:34;;;;;;;7.35;3.13;;;14.40;63.30;;;;;;5132298;28;20072;-85
2023/05/18 09:59:11;;;;;;;9.23;3.20;;;14.40;62.60;;;;;;5132319;27;20468;-84
2023/05/18 10:01:53;;;;;;;5.80;2.90;;;14.40;64.90;;;;;;5132379;27;20015;-85
2023/05/18 10:04:20;;;;;;;11.32;3.42;;;14.50;63.60;;;;;;5132264;27;20064;-85
2023/05/18 10:06:49;;;;;;;8.60;3.47;;;14.60;63.10;;;;;;5115326;28;20522;-85
2023/05/18 10:09:15;;;;;;;8.10;3.20;;;14.60;62.50;;;;;;5131844;27;20073;-85
2023/05/18 10:11:42;;;;;;;6.38;3.28;;;14.60;63.10;;;;;;5115221;28;20023;-85
2023/05/18 10:14:10;;;;;;;7.43;3.55;;;14.70;63.10;;;;;;5115004;28;20071;-85
2023/05/18 10:16:36;;;;;;;7.13;3.20;;;14.70;62.60;;;;;;5132487;27;20266;-85
2023/05/18 10:19:05;;;;;;;10.77;3.72;;;14.80;62.50;;;;;;5115334;28;20384;-85
2023/05/18 10:21:33;;;;;;;7.72;3.15;;;14.90;62.10;;;;;;5115650;28;20023;-85
2023/05/18 10:24:02;;;;;;;6.90;2.83;;;14.80;62.30;;;;;;5132014;27;20032;-85
2023/05/18 10:26:30;;;;;;;7.82;3.65;;;14.90;62.20;;;;;;5132162;28;20027;-85
2023/05/18 10:28:57;;;;;;;5.55;3.28;;;14.90;62.30;;;;;;5131661;27;20369;-84
2023/05/18 10:31:24;;;;;;;6.50;3.33;;;14.90;61.50;;;;;;5133354;27;20028;-85
2023/05/18 10:33:52;;;;;;;7.72;3.22;;;15.00;62.20;;;;;;5114802;28;20023;-85
2023/05/18 10:36:18;;;;;;;5.10;2.85;;;15.10;61.90;;;;;;5131183;27;20075;-85
2023/05/18 10:38:44;;;;;;;8.10;3.42;;;15.20;61.90;;;;;;5113609;27;20065;-85
2023/05/18 10:41:12;;;;;;;4.88;3.08;;;15.20;61.20;;;;;;5101107;27;20480;-85
2023/05/18 10:43:40;;;;;;;9.80;3.42;;;15.30;61.40;;;;;;5100825;27;20024;-85
2023/05/18 10:46:07;;;;;;;7.20;2.83;;;15.40;61.60;;;;;;5134483;27;20068;-85
2023/05/18 10:48:37;;;;;;;4.88;3.10;;;15.40;61.30;;;;;;5118328;27;20034;-85
2023/05/18 10:51:05;;;;;;;5.80;3.00;;;15.50;60.90;;;;;;5135574;27;20023;-85
2023/05/18 10:53:32;;;;;;;6.35;3.40;;;15.50;60.70;;;;;;5135409;27;20072;-85
2023/05/18 10:55:58;;;;;;;5.93;3.20;;;15.50;59.80;;;;;;5135734;27;20019;-85
2023/05/18 10:58:29;;;;;;;6.47;3.20;;;15.60;61.00;;;;;;5135665;27;20019;-85
2023/05/18 11:00:57;;;;;;;9.40;3.55;;;15.70;61.10;;;;;;5136562;27;20026;-85
2023/05/18 11:03:25;;;;;;;7.60;3.28;;;15.90;60.70;;;;;;5120930;27;20027;-85
2023/05/18 11:06:04;;;;;;;7.10;3.20;;;15.90;60.40;;;;;;5116410;28;20027;-85
2023/05/18 11:08:30;;;;;;;9.27;3.05;;;16.00;58.90;;;;;;5118410;27;20398;-85
2023/05/18 11:11:03;;;;;;;8.95;3.63;;;15.90;57.50;;;;;;5133850;27;20071;-85
2023/05/18 11:13:34;;;;;;;8.23;3.50;;;15.90;59.10;;;;;;5116449;27;20031;-84
2023/05/18 11:16:06;;;;;;;6.97;3.20;;;16.00;60.10;;;;;;5135977;27;20027;-85
2023/05/18 11:18:36;;;;;;;7.10;3.05;;;16.10;59.10;;;;;;5136029;27;20030;-85
2023/05/18 11:21:02;;;;;;;7.18;3.25;;;16.10;58.00;;;;;;5134629;27;20026;-85
2023/05/18 11:23:32;;;;;;;6.35;3.00;;;16.20;58.70;;;;;;5117520;27;20031;-85
2023/05/18 11:26:03;;;;;;;7.45;3.40;;;16.30;58.50;;;;;;5117662;27;20612;-85
2023/05/18 11:28:30;;;;;;;7.50;3.50;;;16.30;58.00;;;;;;5118743;27;20072;-85
2023/05/18 11:30:55;;;;;;;7.07;3.55;;;16.40;57.70;;;;;;5100970;27;20539;-85
2023/05/18 11:33:26;;;;;;;9.13;3.25;;;16.40;58.00;;;;;;5117632;27;20156;-85
2023/05/18 11:36:03;;;;;;;8.32;3.28;;;16.40;58.20;;;;;;5134789;27;20152;-85
2023/05/18 11:38:53;;;;;;;7.68;3.30;;;16.50;57.90;;;;;;5134740;27;20034;-85
2023/05/18 11:41:28;;;;;;;9.20;3.58;;;16.60;57.80;;;;;;5134755;27;20029;-85
2023/05/18 11:44:15;;;;;;;8.43;3.30;;;16.70;58.00;;;;;;5134568;27;20121;-85
2023/05/18 11:47:01;;;;;;;7.60;3.58;;;16.70;57.10;;;;;;5135136;27;20073;-85
2023/05/18 11:49:27;;;;;;;7.53;3.78;;;16.70;56.20;;;;;;5134477;27;20027;-85
2023/05/18 11:52:02;;;;;;;7.47;3.20;;;16.70;56.60;;;;;;5134239;27;20115;-85
2023/05/18 11:54:33;;;;;;;6.88;3.38;;;16.90;56.60;;;;;;5134993;27;20084;-85
2023/05/18 11:56:59;;;;;;;5.82;3.63;;;17.00;57.90;;;;;;5134543;27;20019;-85
2023/05/18 11:59:35;;;;;;;9.75;3.13;;;17.00;56.90;;;;;;5096277;28;20034;-85
2023/05/18 12:02:02;;;;;;;5.72;3.00;;;17.10;55.80;;;;;;5112753;28;20015;-85
2023/05/18 12:04:30;;;;;;;7.40;3.03;;;17.20;55.30;;;;;;5097220;28;20480;-85
2023/05/18 12:06:56;;;;;;;5.22;3.10;;;17.30;54.30;;;;;;5113785;28;20016;-85
2023/05/18 12:09:22;;;;;;;10.98;3.35;;;17.40;55.90;;;;;;5095731;28;20397;-85
2023/05/18 12:11:49;;;;;;;7.78;3.30;;;17.50;55.40;;;;;;5096862;28;20020;-85
2023/05/18 12:14:20;;;;;;;7.25;3.25;;;17.50;53.90;;;;;;5097125;28;20091;-86
2023/05/18 12:16:47;;;;;;;6.15;3.00;;;17.50;52.00;;;;;;5097219;28;20105;-85
2023/05/18 12:19:13;;;;;;;6.18;2.80;;;17.50;53.80;;;;;;5097300;28;20406;-85
2023/05/18 12:21:39;;;;;;;9.02;3.13;;;17.50;53.60;;;;;;5096918;28;20040;-85
2023/05/18 12:24:05;;;;;;;5.82;3.10;;;17.60;53.10;;;;;;5096751;28;20397;-85
2023/05/18 12:26:31;;;;;;;6.60;3.25;;;17.60;54.10;;;;;;5096709;28;20026;-86
2023/05/18 12:29:00;;;;;;;9.43;3.15;;;17.70;53.20;;;;;;5096451;28;20469;-85
2023/05/18 12:31:26;;;;;;;5.88;2.95;;;17.70;52.60;;;;;;5113049;28;20055;-85
2023/05/18 12:33:55;;;;;;;6.07;2.60;;;17.70;52.10;;;;;;5114536;28;20062;-85
2023/05/18 12:36:21;;;;;;;5.15;3.10;;;17.70;52.10;;;;;;5113259;28;20114;-85
2023/05/18 12:38:51;;;;;;;6.38;3.10;;;17.70;50.80;;;;;;5114381;28;20035;-85
2023/05/18 12:41:24;;;;;;;6.13;3.00;;;17.70;51.40;;;;;;5096480;28;20028;-85
2023/05/18 12:43:50;;;;;;;5.43;2.72;;;17.60;52.20;;;;;;5097136;28;20419;-85
2023/05/18 12:46:16;;;;;;;6.68;3.15;;;17.60;52.30;;;;;;5113352;28;20036;-85
2023/05/18 12:48:45;;;;;;;7.47;3.65;;;17.70;53.50;;;;;;5096395;28;20031;-85